sensor_id;sensor_type;location;lat;lon;timestamp;P1;durP1;ratioP1;P2;durP2;ratioP2
37303;SDS011;23188;51.188;16.374;2023-12-20T00:03:40;3.80;;;2.60;;
37303;SDS011;23188;51.188;16.374;2023-12-20T00:07:44;3.70;;;3.00;;
37303;SDS011;23188;51.188;16.374;2023-12-20T00:11:48;7.30;;;3.00;;
37303;SDS011;23188;51.188;16.374;2023-12-20T00:15:51;5.00;;;3.70;;
37303;SDS011;23188;51.188;16.374;2023-12-20T00:19:54;6.00;;;2.70;;
37303;SDS011;23188;51.188;16.374;2023-12-20T00:23:57;4.10;;;3.20;;
37303;SDS011;23188;51.188;16.374;2023-12-20T00:28:00;4.20;;;3.40;;
37303;SDS011;23188;51.188;16.374;2023-12-20T00:32:05;2.90;;;2.60;;
37303;SDS011;23188;51.188;16.374;2023-12-20T00:36:08;7.90;;;4.20;;
37303;SDS011;23188;51.188;16.374;2023-12-20T00:40:12;9.70;;;4.00;;
37303;SDS011;23188;51.188;16.374;2023-12-20T00:44:16;6.30;;;3.70;;
37303;SDS011;23188;51.188;16.374;2023-12-20T00:48:19;7.60;;;4.80;;
37303;SDS011;23188;51.188;16.374;2023-12-20T00:52:22;3.50;;;3.20;;
37303;SDS011;23188;51.188;16.374;2023-12-20T00:56:25;3.70;;;3.40;;
37303;SDS011;23188;51.188;16.374;2023-12-20T01:00:28;3.70;;;2.50;;
37303;SDS011;23188;51.188;16.374;2023-12-20T01:04:31;3.40;;;3.10;;
37303;SDS011;23188;51.188;16.374;2023-12-20T01:08:34;3.00;;;2.70;;
37303;SDS011;23188;51.188;16.374;2023-12-20T01:12:38;5.20;;;2.30;;
37303;SDS011;23188;51.188;16.374;2023-12-20T01:16:41;8.90;;;4.00;;
37303;SDS011;23188;51.188;16.374;2023-12-20T01:20:44;4.20;;;3.10;;
37303;SDS011;23188;51.188;16.374;2023-12-20T01:24:47;3.50;;;3.20;;
37303;SDS011;23188;51.188;16.374;2023-12-20T01:28:50;4.90;;;3.50;;
37303;SDS011;23188;51.188;16.374;2023-12-20T01:32:53;3.00;;;2.70;;
37303;SDS011;23188;51.188;16.374;2023-12-20T01:36:57;3.40;;;1.90;;
37303;SDS011;23188;51.188;16.374;2023-12-20T01:41:00;3.30;;;2.90;;
37303;SDS011;23188;51.188;16.374;2023-12-20T01:45:03;4.20;;;2.70;;
37303;SDS011;23188;51.188;16.374;2023-12-20T01:49:07;3.00;;;2.40;;
37303;SDS011;23188;51.188;16.374;2023-12-20T01:53:11;3.20;;;2.70;;
37303;SDS011;23188;51.188;16.374;2023-12-20T01:57:15;2.40;;;2.00;;
37303;SDS011;23188;51.188;16.374;2023-12-20T02:01:18;4.00;;;2.80;;
37303;SDS011;23188;51.188;16.374;2023-12-20T02:05:22;2.90;;;2.50;;
37303;SDS011;23188;51.188;16.374;2023-12-20T02:09:26;2.60;;;2.40;;
37303;SDS011;23188;51.188;16.374;2023-12-20T02:13:30;2.40;;;2.00;;
37303;SDS011;23188;51.188;16.374;2023-12-20T02:17:34;1.20;;;1.10;;
37303;SDS011;23188;51.188;16.374;2023-12-20T02:21:38;1.30;;;1.20;;
37303;SDS011;23188;51.188;16.374;2023-12-20T02:25:41;1.10;;;0.80;;
37303;SDS011;23188;51.188;16.374;2023-12-20T02:29:46;2.60;;;1.40;;
37303;SDS011;23188;51.188;16.374;2023-12-20T02:33:51;6.30;;;4.10;;
37303;SDS011;23188;51.188;16.374;2023-12-20T02:37:54;6.80;;;2.50;;
37303;SDS011;23188;51.188;16.374;2023-12-20T02:41:57;5.80;;;2.30;;
37303;SDS011;23188;51.188;16.374;2023-12-20T02:46:00;4.00;;;2.40;;
37303;SDS011;23188;51.188;16.374;2023-12-20T02:50:03;4.30;;;1.30;;
37303;SDS011;23188;51.188;16.374;2023-12-20T02:54:06;2.10;;;1.40;;
37303;SDS011;23188;51.188;16.374;2023-12-20T02:58:09;1.50;;;1.40;;
37303;SDS011;23188;51.188;16.374;2023-12-20T03:02:12;1.80;;;1.30;;
37303;SDS011;23188;51.188;16.374;2023-12-20T03:06:19;0.90;;;0.80;;
37303;SDS011;23188;51.188;16.374;2023-12-20T03:10:22;2.80;;;1.30;;
37303;SDS011;23188;51.188;16.374;2023-12-20T03:14:29;1.50;;;1.10;;
37303;SDS011;23188;51.188;16.374;2023-12-20T03:18:32;2.10;;;1.30;;
37303;SDS011;23188;51.188;16.374;2023-12-20T03:22:35;1.30;;;1.00;;
37303;SDS011;23188;51.188;16.374;2023-12-20T03:26:38;1.10;;;0.60;;
37303;SDS011;23188;51.188;16.374;2023-12-20T03:30:41;2.90;;;1.00;;
37303;SDS011;23188;51.188;16.374;2023-12-20T03:34:44;1.50;;;0.50;;
37303;SDS011;23188;51.188;16.374;2023-12-20T03:38:47;1.70;;;1.30;;
37303;SDS011;23188;51.188;16.374;2023-12-20T03:42:50;2.10;;;1.40;;
37303;SDS011;23188;51.188;16.374;2023-12-20T03:46:53;1.90;;;0.90;;
37303;SDS011;23188;51.188;16.374;2023-12-20T03:50:57;2.00;;;0.90;;
37303;SDS011;23188;51.188;16.374;2023-12-20T03:55:00;1.30;;;0.60;;
37303;SDS011;23188;51.188;16.374;2023-12-20T03:59:03;1.10;;;0.70;;
37303;SDS011;23188;51.188;16.374;2023-12-20T04:03:06;1.80;;;1.10;;
37303;SDS011;23188;51.188;16.374;2023-12-20T04:07:10;1.50;;;1.20;;
37303;SDS011;23188;51.188;16.374;2023-12-20T04:11:13;0.80;;;0.50;;
37303;SDS011;23188;51.188;16.374;2023-12-20T04:15:16;1.90;;;1.60;;
37303;SDS011;23188;51.188;16.374;2023-12-20T04:19:19;1.30;;;1.00;;
37303;SDS011;23188;51.188;16.374;2023-12-20T04:23:23;1.20;;;1.10;;
37303;SDS011;23188;51.188;16.374;2023-12-20T04:27:26;1.40;;;1.00;;
37303;SDS011;23188;51.188;16.374;2023-12-20T04:31:30;1.10;;;1.00;;
37303;SDS011;23188;51.188;16.374;2023-12-20T04:35:33;1.30;;;1.20;;
37303;SDS011;23188;51.188;16.374;2023-12-20T04:39:36;5.00;;;2.00;;
37303;SDS011;23188;51.188;16.374;2023-12-20T04:43:40;1.00;;;0.90;;
37303;SDS011;23188;51.188;16.374;2023-12-20T04:47:43;4.30;;;2.00;;
37303;SDS011;23188;51.188;16.374;2023-12-20T04:51:47;1.40;;;0.80;;
37303;SDS011;23188;51.188;16.374;2023-12-20T04:55:50;2.20;;;1.30;;
37303;SDS011;23188;51.188;16.374;2023-12-20T04:59:53;4.10;;;2.10;;
37303;SDS011;23188;51.188;16.374;2023-12-20T05:03:57;1.50;;;1.20;;
37303;SDS011;23188;51.188;16.374;2023-12-20T05:08:00;1.70;;;1.40;;
37303;SDS011;23188;51.188;16.374;2023-12-20T05:12:04;1.80;;;0.80;;
37303;SDS011;23188;51.188;16.374;2023-12-20T05:16:08;1.40;;;0.90;;
37303;SDS011;23188;51.188;16.374;2023-12-20T05:20:12;4.30;;;1.90;;
37303;SDS011;23188;51.188;16.374;2023-12-20T05:24:15;1.80;;;1.40;;
37303;SDS011;23188;51.188;16.374;2023-12-20T05:28:18;1.10;;;0.90;;
37303;SDS011;23188;51.188;16.374;2023-12-20T05:32:21;1.50;;;1.30;;
37303;SDS011;23188;51.188;16.374;2023-12-20T05:36:25;1.30;;;1.20;;
37303;SDS011;23188;51.188;16.374;2023-12-20T05:40:29;1.20;;;0.90;;
37303;SDS011;23188;51.188;16.374;2023-12-20T05:44:32;2.20;;;1.30;;
37303;SDS011;23188;51.188;16.374;2023-12-20T05:48:35;1.90;;;1.10;;
37303;SDS011;23188;51.188;16.374;2023-12-20T05:52:38;0.80;;;0.60;;
37303;SDS011;23188;51.188;16.374;2023-12-20T05:56:42;1.60;;;1.00;;
37303;SDS011;23188;51.188;16.374;2023-12-20T06:00:45;0.60;;;0.60;;
37303;SDS011;23188;51.188;16.374;2023-12-20T06:04:49;1.40;;;0.60;;
37303;SDS011;23188;51.188;16.374;2023-12-20T06:08:52;0.50;;;0.50;;
37303;SDS011;23188;51.188;16.374;2023-12-20T06:12:55;5.00;;;0.50;;
37303;SDS011;23188;51.188;16.374;2023-12-20T06:17:00;0.60;;;0.60;;
37303;SDS011;23188;51.188;16.374;2023-12-20T06:21:04;1.90;;;0.80;;
37303;SDS011;23188;51.188;16.374;2023-12-20T06:25:07;0.50;;;0.50;;
37303;SDS011;23188;51.188;16.374;2023-12-20T06:29:11;0.60;;;0.30;;
37303;SDS011;23188;51.188;16.374;2023-12-20T06:33:14;1.10;;;0.50;;
37303;SDS011;23188;51.188;16.374;2023-12-20T06:37:18;0.50;;;0.30;;
37303;SDS011;23188;51.188;16.374;2023-12-20T06:41:21;1.50;;;0.60;;
37303;SDS011;23188;51.188;16.374;2023-12-20T06:45:27;0.20;;;0.20;;
37303;SDS011;23188;51.188;16.374;2023-12-20T06:49:30;0.40;;;0.30;;
37303;SDS011;23188;51.188;16.374;2023-12-20T06:53:33;1.30;;;0.80;;
37303;SDS011;23188;51.188;16.374;2023-12-20T06:57:36;0.50;;;0.40;;
37303;SDS011;23188;51.188;16.374;2023-12-20T07:01:40;0.60;;;0.30;;
37303;SDS011;23188;51.188;16.374;2023-12-20T07:05:43;0.40;;;0.40;;
37303;SDS011;23188;51.188;16.374;2023-12-20T07:09:46;0.30;;;0.30;;
37303;SDS011;23188;51.188;16.374;2023-12-20T07:13:50;3.20;;;0.20;;
37303;SDS011;23188;51.188;16.374;2023-12-20T07:17:53;0.40;;;0.20;;
37303;SDS011;23188;51.188;16.374;2023-12-20T07:21:57;1.30;;;0.70;;
37303;SDS011;23188;51.188;16.374;2023-12-20T07:26:00;1.70;;;0.50;;
37303;SDS011;23188;51.188;16.374;2023-12-20T07:30:04;0.30;;;0.30;;
37303;SDS011;23188;51.188;16.374;2023-12-20T07:34:08;0.60;;;0.40;;
37303;SDS011;23188;51.188;16.374;2023-12-20T07:38:11;0.60;;;0.40;;
37303;SDS011;23188;51.188;16.374;2023-12-20T07:42:15;3.10;;;1.40;;
37303;SDS011;23188;51.188;16.374;2023-12-20T07:46:18;0.80;;;0.80;;
37303;SDS011;23188;51.188;16.374;2023-12-20T07:50:25;1.60;;;1.10;;
37303;SDS011;23188;51.188;16.374;2023-12-20T07:54:30;0.90;;;0.60;;
37303;SDS011;23188;51.188;16.374;2023-12-20T07:58:33;2.00;;;0.60;;
37303;SDS011;23188;51.188;16.374;2023-12-20T08:02:53;0.80;;;0.50;;
37303;SDS011;23188;51.188;16.374;2023-12-20T08:06:56;2.50;;;1.60;;
37303;SDS011;23188;51.188;16.374;2023-12-20T08:10:59;1.30;;;0.80;;
37303;SDS011;23188;51.188;16.374;2023-12-20T08:15:03;1.30;;;0.90;;
37303;SDS011;23188;51.188;16.374;2023-12-20T08:19:07;1.00;;;0.80;;
37303;SDS011;23188;51.188;16.374;2023-12-20T08:23:10;1.40;;;1.10;;
37303;SDS011;23188;51.188;16.374;2023-12-20T08:27:13;2.60;;;1.80;;
37303;SDS011;23188;51.188;16.374;2023-12-20T08:31:17;1.20;;;0.60;;
37303;SDS011;23188;51.188;16.374;2023-12-20T08:35:21;0.80;;;0.80;;
37303;SDS011;23188;51.188;16.374;2023-12-20T08:39:25;1.00;;;0.70;;
37303;SDS011;23188;51.188;16.374;2023-12-20T08:43:28;1.80;;;0.80;;
37303;SDS011;23188;51.188;16.374;2023-12-20T08:47:31;3.10;;;1.70;;
37303;SDS011;23188;51.188;16.374;2023-12-20T08:51:34;1.80;;;1.10;;
37303;SDS011;23188;51.188;16.374;2023-12-20T08:55:38;1.70;;;1.00;;
37303;SDS011;23188;51.188;16.374;2023-12-20T08:59:41;1.40;;;1.20;;
37303;SDS011;23188;51.188;16.374;2023-12-20T09:03:44;1.40;;;1.10;;
37303;SDS011;23188;51.188;16.374;2023-12-20T09:07:47;1.30;;;1.00;;
37303;SDS011;23188;51.188;16.374;2023-12-20T09:11:51;1.20;;;1.10;;
37303;SDS011;23188;51.188;16.374;2023-12-20T09:15:55;1.30;;;1.20;;
37303;SDS011;23188;51.188;16.374;2023-12-20T09:19:58;3.00;;;2.30;;
37303;SDS011;23188;51.188;16.374;2023-12-20T09:24:03;4.40;;;2.40;;
37303;SDS011;23188;51.188;16.374;2023-12-20T09:28:06;6.20;;;1.60;;
37303;SDS011;23188;51.188;16.374;2023-12-20T09:32:09;2.00;;;1.10;;
37303;SDS011;23188;51.188;16.374;2023-12-20T09:36:12;4.30;;;1.60;;
37303;SDS011;23188;51.188;16.374;2023-12-20T09:40:18;1.70;;;1.10;;
37303;SDS011;23188;51.188;16.374;2023-12-20T09:44:22;2.30;;;1.60;;
37303;SDS011;23188;51.188;16.374;2023-12-20T09:48:26;1.00;;;0.90;;
37303;SDS011;23188;51.188;16.374;2023-12-20T09:52:30;2.60;;;1.70;;
37303;SDS011;23188;51.188;16.374;2023-12-20T09:56:34;2.60;;;1.80;;
37303;SDS011;23188;51.188;16.374;2023-12-20T10:00:38;3.60;;;1.90;;
37303;SDS011;23188;51.188;16.374;2023-12-20T10:04:46;2.50;;;1.50;;
37303;SDS011;23188;51.188;16.374;2023-12-20T10:08:51;3.40;;;2.80;;
37303;SDS011;23188;51.188;16.374;2023-12-20T10:13:02;2.30;;;2.00;;
37303;SDS011;23188;51.188;16.374;2023-12-20T10:17:07;5.00;;;2.50;;
37303;SDS011;23188;51.188;16.374;2023-12-20T10:21:11;7.00;;;2.50;;
37303;SDS011;23188;51.188;16.374;2023-12-20T10:25:14;4.50;;;2.30;;
37303;SDS011;23188;51.188;16.374;2023-12-20T10:29:17;4.20;;;2.30;;
37303;SDS011;23188;51.188;16.374;2023-12-20T10:33:27;2.40;;;1.50;;
37303;SDS011;23188;51.188;16.374;2023-12-20T10:37:31;5.30;;;1.50;;
37303;SDS011;23188;51.188;16.374;2023-12-20T10:41:39;6.40;;;2.10;;
37303;SDS011;23188;51.188;16.374;2023-12-20T10:45:44;6.30;;;2.80;;
37303;SDS011;23188;51.188;16.374;2023-12-20T10:49:47;3.10;;;1.80;;
37303;SDS011;23188;51.188;16.374;2023-12-20T10:53:52;2.30;;;1.80;;
37303;SDS011;23188;51.188;16.374;2023-12-20T10:58:06;6.20;;;1.50;;
37303;SDS011;23188;51.188;16.374;2023-12-20T11:02:11;3.90;;;1.50;;
37303;SDS011;23188;51.188;16.374;2023-12-20T11:10:51;3.80;;;1.30;;
37303;SDS011;23188;51.188;16.374;2023-12-20T11:15:02;2.10;;;1.20;;
37303;SDS011;23188;51.188;16.374;2023-12-20T11:19:07;3.10;;;1.40;;
37303;SDS011;23188;51.188;16.374;2023-12-20T11:23:10;3.80;;;1.60;;
37303;SDS011;23188;51.188;16.374;2023-12-20T11:27:14;2.60;;;1.50;;
37303;SDS011;23188;51.188;16.374;2023-12-20T11:31:17;2.40;;;1.10;;
37303;SDS011;23188;51.188;16.374;2023-12-20T11:35:20;3.20;;;1.30;;
37303;SDS011;23188;51.188;16.374;2023-12-20T11:39:25;2.90;;;1.50;;
37303;SDS011;23188;51.188;16.374;2023-12-20T11:43:29;4.70;;;2.10;;
37303;SDS011;23188;51.188;16.374;2023-12-20T11:51:41;3.30;;;1.30;;
37303;SDS011;23188;51.188;16.374;2023-12-20T11:59:50;1.60;;;1.40;;
37303;SDS011;23188;51.188;16.374;2023-12-20T12:04:03;2.00;;;1.20;;
37303;SDS011;23188;51.188;16.374;2023-12-20T12:08:07;7.00;;;1.20;;
37303;SDS011;23188;51.188;16.374;2023-12-20T12:12:11;2.30;;;1.50;;
37303;SDS011;23188;51.188;16.374;2023-12-20T12:16:22;2.90;;;1.60;;
37303;SDS011;23188;51.188;16.374;2023-12-20T12:20:25;4.40;;;2.00;;
37303;SDS011;23188;51.188;16.374;2023-12-20T12:24:28;6.10;;;1.50;;
37303;SDS011;23188;51.188;16.374;2023-12-20T12:28:31;3.10;;;1.30;;
37303;SDS011;23188;51.188;16.374;2023-12-20T12:32:37;2.90;;;1.60;;
37303;SDS011;23188;51.188;16.374;2023-12-20T12:36:41;2.50;;;1.30;;
37303;SDS011;23188;51.188;16.374;2023-12-20T12:40:45;5.40;;;1.80;;
37303;SDS011;23188;51.188;16.374;2023-12-20T12:44:49;3.10;;;1.10;;
37303;SDS011;23188;51.188;16.374;2023-12-20T12:48:52;5.30;;;2.50;;
37303;SDS011;23188;51.188;16.374;2023-12-20T12:52:55;3.20;;;1.80;;
37303;SDS011;23188;51.188;16.374;2023-12-20T12:56:58;4.80;;;2.00;;
37303;SDS011;23188;51.188;16.374;2023-12-20T13:01:01;3.70;;;1.40;;
37303;SDS011;23188;51.188;16.374;2023-12-20T13:05:06;7.50;;;1.90;;
37303;SDS011;23188;51.188;16.374;2023-12-20T13:09:11;10.80;;;2.50;;
37303;SDS011;23188;51.188;16.374;2023-12-20T13:13:14;3.80;;;1.30;;
37303;SDS011;23188;51.188;16.374;2023-12-20T13:17:17;1.90;;;1.50;;
37303;SDS011;23188;51.188;16.374;2023-12-20T13:21:21;8.00;;;1.80;;
37303;SDS011;23188;51.188;16.374;2023-12-20T13:25:24;2.20;;;1.50;;
37303;SDS011;23188;51.188;16.374;2023-12-20T13:29:27;3.50;;;2.20;;
37303;SDS011;23188;51.188;16.374;2023-12-20T13:33:31;12.00;;;1.80;;
37303;SDS011;23188;51.188;16.374;2023-12-20T13:37:34;4.30;;;1.80;;
37303;SDS011;23188;51.188;16.374;2023-12-20T13:41:38;5.50;;;2.30;;
37303;SDS011;23188;51.188;16.374;2023-12-20T13:45:41;3.60;;;1.70;;
37303;SDS011;23188;51.188;16.374;2023-12-20T13:49:44;4.10;;;2.20;;
37303;SDS011;23188;51.188;16.374;2023-12-20T13:53:48;3.10;;;2.20;;
37303;SDS011;23188;51.188;16.374;2023-12-20T13:57:51;2.50;;;1.70;;
37303;SDS011;23188;51.188;16.374;2023-12-20T14:01:58;6.60;;;2.20;;
37303;SDS011;23188;51.188;16.374;2023-12-20T14:06:01;3.10;;;1.60;;
37303;SDS011;23188;51.188;16.374;2023-12-20T14:10:05;6.50;;;1.90;;
37303;SDS011;23188;51.188;16.374;2023-12-20T14:14:09;4.80;;;1.90;;
37303;SDS011;23188;51.188;16.374;2023-12-20T14:18:12;3.90;;;1.60;;
37303;SDS011;23188;51.188;16.374;2023-12-20T14:22:17;3.70;;;2.10;;
37303;SDS011;23188;51.188;16.374;2023-12-20T14:26:21;10.40;;;2.70;;
37303;SDS011;23188;51.188;16.374;2023-12-20T14:30:25;2.70;;;2.00;;
37303;SDS011;23188;51.188;16.374;2023-12-20T14:34:31;5.30;;;2.70;;
37303;SDS011;23188;51.188;16.374;2023-12-20T14:42:38;3.10;;;1.80;;
37303;SDS011;23188;51.188;16.374;2023-12-20T14:46:42;4.30;;;2.00;;
37303;SDS011;23188;51.188;16.374;2023-12-20T14:50:47;3.80;;;2.40;;
37303;SDS011;23188;51.188;16.374;2023-12-20T14:54:51;5.10;;;2.20;;
37303;SDS011;23188;51.188;16.374;2023-12-20T14:58:54;3.70;;;1.90;;
37303;SDS011;23188;51.188;16.374;2023-12-20T15:02:59;4.40;;;2.30;;
37303;SDS011;23188;51.188;16.374;2023-12-20T15:07:03;4.50;;;1.60;;
37303;SDS011;23188;51.188;16.374;2023-12-20T15:11:09;5.90;;;1.80;;
37303;SDS011;23188;51.188;16.374;2023-12-20T15:15:13;4.80;;;2.50;;
37303;SDS011;23188;51.188;16.374;2023-12-20T15:19:16;6.50;;;1.40;;
37303;SDS011;23188;51.188;16.374;2023-12-20T15:23:20;4.70;;;2.10;;
37303;SDS011;23188;51.188;16.374;2023-12-20T15:27:28;4.00;;;1.90;;
37303;SDS011;23188;51.188;16.374;2023-12-20T15:31:32;7.90;;;3.20;;
37303;SDS011;23188;51.188;16.374;2023-12-20T15:35:35;4.10;;;2.40;;
37303;SDS011;23188;51.188;16.374;2023-12-20T15:39:39;2.90;;;1.80;;
37303;SDS011;23188;51.188;16.374;2023-12-20T15:43:44;3.60;;;1.90;;
37303;SDS011;23188;51.188;16.374;2023-12-20T15:47:47;3.00;;;1.40;;
37303;SDS011;23188;51.188;16.374;2023-12-20T15:51:51;4.30;;;2.60;;
37303;SDS011;23188;51.188;16.374;2023-12-20T15:55:55;4.50;;;2.00;;
37303;SDS011;23188;51.188;16.374;2023-12-20T15:59:58;2.70;;;1.70;;
37303;SDS011;23188;51.188;16.374;2023-12-20T16:04:02;5.10;;;2.00;;
37303;SDS011;23188;51.188;16.374;2023-12-20T16:08:05;6.80;;;2.10;;
37303;SDS011;23188;51.188;16.374;2023-12-20T16:12:09;4.20;;;1.80;;
37303;SDS011;23188;51.188;16.374;2023-12-20T16:16:13;4.00;;;2.30;;
37303;SDS011;23188;51.188;16.374;2023-12-20T16:20:16;3.30;;;2.20;;
37303;SDS011;23188;51.188;16.374;2023-12-20T16:24:19;3.20;;;2.10;;
37303;SDS011;23188;51.188;16.374;2023-12-20T16:28:23;4.20;;;1.90;;
37303;SDS011;23188;51.188;16.374;2023-12-20T16:32:26;1.10;;;1.00;;
37303;SDS011;23188;51.188;16.374;2023-12-20T16:36:46;2.50;;;1.60;;
37303;SDS011;23188;51.188;16.374;2023-12-20T16:40:52;4.60;;;1.60;;
37303;SDS011;23188;51.188;16.374;2023-12-20T16:44:55;2.50;;;1.10;;
37303;SDS011;23188;51.188;16.374;2023-12-20T17:20:37;3.10;;;2.00;;
37303;SDS011;23188;51.188;16.374;2023-12-20T17:24:40;5.80;;;2.30;;
37303;SDS011;23188;51.188;16.374;2023-12-20T17:28:42;2.80;;;1.60;;
37303;SDS011;23188;51.188;16.374;2023-12-20T17:32:43;4.00;;;2.20;;
37303;SDS011;23188;51.188;16.374;2023-12-20T17:36:50;2.90;;;1.60;;
37303;SDS011;23188;51.188;16.374;2023-12-20T17:40:52;2.80;;;1.50;;
37303;SDS011;23188;51.188;16.374;2023-12-20T17:44:54;2.00;;;1.70;;
37303;SDS011;23188;51.188;16.374;2023-12-20T17:48:55;3.00;;;2.00;;
37303;SDS011;23188;51.188;16.374;2023-12-20T17:52:57;2.40;;;1.40;;
37303;SDS011;23188;51.188;16.374;2023-12-20T17:57:00;2.10;;;1.40;;
37303;SDS011;23188;51.188;16.374;2023-12-20T18:01:02;4.20;;;1.90;;
37303;SDS011;23188;51.188;16.374;2023-12-20T18:05:04;7.00;;;3.00;;
37303;SDS011;23188;51.188;16.374;2023-12-20T18:09:06;3.90;;;1.70;;
37303;SDS011;23188;51.188;16.374;2023-12-20T18:13:08;6.10;;;2.40;;
37303;SDS011;23188;51.188;16.374;2023-12-20T18:17:10;1.40;;;1.10;;
37303;SDS011;23188;51.188;16.374;2023-12-20T18:21:11;2.70;;;1.20;;
37303;SDS011;23188;51.188;16.374;2023-12-20T18:25:13;1.70;;;1.50;;
37303;SDS011;23188;51.188;16.374;2023-12-20T18:29:15;4.90;;;2.10;;
37303;SDS011;23188;51.188;16.374;2023-12-20T18:33:18;0.90;;;0.70;;
37303;SDS011;23188;51.188;16.374;2023-12-20T18:37:19;2.90;;;1.30;;
37303;SDS011;23188;51.188;16.374;2023-12-20T18:41:21;2.70;;;1.90;;
37303;SDS011;23188;51.188;16.374;2023-12-20T18:45:23;3.60;;;1.90;;
37303;SDS011;23188;51.188;16.374;2023-12-20T18:49:25;3.00;;;1.40;;
37303;SDS011;23188;51.188;16.374;2023-12-20T18:53:27;3.80;;;1.40;;
37303;SDS011;23188;51.188;16.374;2023-12-20T18:57:29;4.60;;;1.60;;
37303;SDS011;23188;51.188;16.374;2023-12-20T19:01:31;2.20;;;1.70;;
37303;SDS011;23188;51.188;16.374;2023-12-20T19:05:33;3.30;;;1.30;;
37303;SDS011;23188;51.188;16.374;2023-12-20T19:09:35;5.20;;;2.40;;
37303;SDS011;23188;51.188;16.374;2023-12-20T19:13:37;1.70;;;1.40;;
37303;SDS011;23188;51.188;16.374;2023-12-20T19:17:39;2.50;;;1.20;;
37303;SDS011;23188;51.188;16.374;2023-12-20T19:21:41;2.50;;;1.80;;
37303;SDS011;23188;51.188;16.374;2023-12-20T19:25:46;2.90;;;1.00;;
37303;SDS011;23188;51.188;16.374;2023-12-20T19:29:47;1.90;;;1.60;;
37303;SDS011;23188;51.188;16.374;2023-12-20T19:33:49;2.20;;;1.50;;
37303;SDS011;23188;51.188;16.374;2023-12-20T19:37:54;2.60;;;1.30;;
37303;SDS011;23188;51.188;16.374;2023-12-20T19:41:56;4.40;;;2.00;;
37303;SDS011;23188;51.188;16.374;2023-12-20T19:45:58;3.50;;;1.40;;
37303;SDS011;23188;51.188;16.374;2023-12-20T19:50:00;2.00;;;1.60;;
37303;SDS011;23188;51.188;16.374;2023-12-20T19:54:03;3.10;;;1.20;;
37303;SDS011;23188;51.188;16.374;2023-12-20T19:58:05;1.80;;;1.40;;
37303;SDS011;23188;51.188;16.374;2023-12-20T20:02:07;2.10;;;1.80;;
37303;SDS011;23188;51.188;16.374;2023-12-20T20:06:09;4.10;;;1.60;;
37303;SDS011;23188;51.188;16.374;2023-12-20T20:10:12;3.30;;;2.30;;
37303;SDS011;23188;51.188;16.374;2023-12-20T20:14:14;5.40;;;2.50;;
37303;SDS011;23188;51.188;16.374;2023-12-20T20:18:16;3.90;;;1.60;;
37303;SDS011;23188;51.188;16.374;2023-12-20T20:22:20;3.90;;;2.30;;
37303;SDS011;23188;51.188;16.374;2023-12-20T20:26:22;6.30;;;3.00;;
37303;SDS011;23188;51.188;16.374;2023-12-20T20:30:24;2.70;;;2.20;;
37303;SDS011;23188;51.188;16.374;2023-12-20T20:34:26;6.30;;;2.10;;
37303;SDS011;23188;51.188;16.374;2023-12-20T20:38:29;3.60;;;2.70;;
37303;SDS011;23188;51.188;16.374;2023-12-20T20:42:31;3.40;;;1.80;;
37303;SDS011;23188;51.188;16.374;2023-12-20T20:46:33;8.00;;;2.40;;
37303;SDS011;23188;51.188;16.374;2023-12-20T20:50:35;5.50;;;2.50;;
37303;SDS011;23188;51.188;16.374;2023-12-20T20:54:37;3.20;;;2.40;;
37303;SDS011;23188;51.188;16.374;2023-12-20T20:58:39;6.40;;;2.80;;
37303;SDS011;23188;51.188;16.374;2023-12-20T21:02:41;4.10;;;2.00;;
37303;SDS011;23188;51.188;16.374;2023-12-20T21:06:43;2.50;;;1.90;;
37303;SDS011;23188;51.188;16.374;2023-12-20T21:10:45;4.40;;;2.10;;
37303;SDS011;23188;51.188;16.374;2023-12-20T21:14:48;3.10;;;2.20;;
37303;SDS011;23188;51.188;16.374;2023-12-20T21:18:49;3.50;;;2.10;;
37303;SDS011;23188;51.188;16.374;2023-12-20T21:22:51;4.60;;;2.40;;
37303;SDS011;23188;51.188;16.374;2023-12-20T21:26:53;4.60;;;2.50;;
37303;SDS011;23188;51.188;16.374;2023-12-20T21:30:55;12.60;;;3.10;;
37303;SDS011;23188;51.188;16.374;2023-12-20T21:34:57;6.20;;;1.80;;
37303;SDS011;23188;51.188;16.374;2023-12-20T21:38:58;2.90;;;2.10;;
37303;SDS011;23188;51.188;16.374;2023-12-20T21:43:00;1.70;;;1.20;;
37303;SDS011;23188;51.188;16.374;2023-12-20T21:47:03;6.70;;;1.40;;
37303;SDS011;23188;51.188;16.374;2023-12-20T21:51:06;1.40;;;0.80;;
37303;SDS011;23188;51.188;16.374;2023-12-20T21:55:07;3.00;;;1.40;;
37303;SDS011;23188;51.188;16.374;2023-12-20T21:59:09;14.30;;;2.90;;
37303;SDS011;23188;51.188;16.374;2023-12-20T22:03:11;1.50;;;0.50;;
37303;SDS011;23188;51.188;16.374;2023-12-20T22:07:13;2.20;;;0.80;;
37303;SDS011;23188;51.188;16.374;2023-12-20T22:11:15;3.80;;;1.10;;
37303;SDS011;23188;51.188;16.374;2023-12-20T22:15:17;2.00;;;0.70;;
37303;SDS011;23188;51.188;16.374;2023-12-20T22:19:19;1.80;;;1.30;;
37303;SDS011;23188;51.188;16.374;2023-12-20T22:23:21;1.80;;;0.80;;
37303;SDS011;23188;51.188;16.374;2023-12-20T22:27:23;0.70;;;0.30;;
37303;SDS011;23188;51.188;16.374;2023-12-20T22:31:26;0.60;;;0.40;;
37303;SDS011;23188;51.188;16.374;2023-12-20T22:35:28;1.60;;;1.10;;
37303;SDS011;23188;51.188;16.374;2023-12-20T22:39:30;2.10;;;0.60;;
37303;SDS011;23188;51.188;16.374;2023-12-20T22:43:31;0.90;;;0.30;;
37303;SDS011;23188;51.188;16.374;2023-12-20T22:47:34;1.60;;;0.70;;
37303;SDS011;23188;51.188;16.374;2023-12-20T22:51:36;1.30;;;0.70;;
37303;SDS011;23188;51.188;16.374;2023-12-20T22:55:37;1.20;;;0.90;;
37303;SDS011;23188;51.188;16.374;2023-12-20T22:59:39;0.80;;;0.60;;
37303;SDS011;23188;51.188;16.374;2023-12-20T23:03:42;2.80;;;0.40;;
37303;SDS011;23188;51.188;16.374;2023-12-20T23:07:44;3.50;;;1.30;;
37303;SDS011;23188;51.188;16.374;2023-12-20T23:11:47;4.10;;;1.60;;
37303;SDS011;23188;51.188;16.374;2023-12-20T23:15:51;1.60;;;1.20;;
37303;SDS011;23188;51.188;16.374;2023-12-20T23:19:53;0.50;;;0.50;;
37303;SDS011;23188;51.188;16.374;2023-12-20T23:23:55;2.00;;;0.90;;
37303;SDS011;23188;51.188;16.374;2023-12-20T23:27:57;2.30;;;0.90;;
37303;SDS011;23188;51.188;16.374;2023-12-20T23:31:59;0.60;;;0.40;;
37303;SDS011;23188;51.188;16.374;2023-12-20T23:36:01;1.50;;;0.90;;
37303;SDS011;23188;51.188;16.374;2023-12-20T23:40:03;1.70;;;0.90;;
37303;SDS011;23188;51.188;16.374;2023-12-20T23:44:06;1.10;;;1.00;;
37303;SDS011;23188;51.188;16.374;2023-12-20T23:48:07;1.40;;;0.80;;
37303;SDS011;23188;51.188;16.374;2023-12-20T23:52:09;3.30;;;1.50;;
37303;SDS011;23188;51.188;16.374;2023-12-20T23:56:11;2.30;;;1.20;;
